< < Back
Terminal Aerodrome Forecast


Current Version              Previous Versions:   1  2  3  4  5  6  7  8  9  

Terminal Aerodrome Forecast

271
FTUS42 KJAX 281142
TAFJAX
TAF
KJAX 281142Z 2812/0112 02012G21KT P6SM -RA SCT015 OVC025
      WS015/05035KT
     FM281500 02015G25KT 5SM -RA BR SCT008 BKN015 OVC025
      TEMPO 2815/2819 3SM RA BR BKN008 OVC015
     FM010000 01010G15KT 5SM -RA BR SCT004 BKN007 OVC015
     FM010600 04007KT 5SM -DZ BR OVC004=



Latest METAR

991
SAUS80 KWBC 281400 RRA
MTRJAX
METAR KJAX 281356Z 03010KT 7SM BKN027 OVC031 12/11 A3042 RMK AO2 RAE09
SLP302 P0001 T01170111


USA.gov is the U.S. government's official web portal to all federal, state and local government web resources and services.